LFPM 201000Z AUTO 00000KT CAVOK 22/15 Q1015

Nombre de NOTAM : 3    
LFFA-E2157/20 
Q) LFFF/QFAXX/ V/NBO/ A/000/999/4849N00237E005
A) LFPL  LOGNES EMERAINVILLE
B) 2020 Jun 29  19:57 C) 2020 Oct 31  06:35
D) SS-SR
E) UTILSATION AD POSSIBLE DE NUIT POUR AVITAILLEMENT PAR
OPERATEURS 'SMUH' AUTORISES
LFFA-E2718/20 
Q) LFFF/QSTAH/IV/ BO/ A/000/999/4849N00237E005
A) LFPL  LOGNES EMERAINVILLE
B) 2020 Sep 01  07:00 C) 2020 Sep 28  23:59
E) HORAIRES DU CONTROLE D'AERODROME : 0700-1800.
LFFA-P1881/20 
Q) LFFF/QOBCE/IV/  M/ A/000/999/4849N00237E005
A) LFPL  LOGNES EMERAINVILLE
B) 2020 Jun 30  18:16 C) 2020 Oct 31  23:59
E) PRESENCE D'ARBRES IMPACTANT LES SERVITUDES AERONAUTIQUES :
-1: PSN: 484911N 0023802E PROXIMITE SEUIL 26 NON REVETU
         484911N 0023805E
         484911N 0023801E
  ALTITUDE AU SOMMET : 422FT
  HAUTEUR : 68FT
  NON BALISES
- 2: PSN: 484908N 0023732E SUD PISTE NON REVETUE
          484909N 0023745E
          484908N 0023732E
 ALTITUDE AU SOMMET 412FT
 HAUTEUR 54FT
 NON BALISES
- 3: PSN: 484905N 0023659E PROXIMITE SEUIL 08 NON REVETU,  
          484904N 0023654E
          484909N 0023650E
          484905N 0023659E
 ALTITUDE AU SOMMET 415FT
 HAUTEUR 57FT
 NON BALISES
  © SIA.